Flensburg-Schaeferhaus, Germany

5:14 PM CEST on September 21, 2014 (GMT +0200)
Flensburg | Change Station
CLOSE
Current Station
Personal Weather Station
Location: Handewitt, SCHLESWIG-HOLSTEIN
Elevation: 118 ft
Nearby Weather Stations

Elev 118 ft 54.79 °N, 9.31 °E | Updated 19 seconds ago

Scattered Clouds
Scattered Clouds
60.6 °F
Feels Like 60.6 °F
N
3.4
Wind Variable Wind from NNE
Gusts 4.9 mph

Today
High -- | Low -- °F
--% Chance of Precip.
Yesterday
High -- | Low -- °F
Precip. -- in
7:05 AM 7:24 PM
Waning Crescent, 6% visible
Pressure 29.83 in
Visibility 6.2 miles
Clouds Scattered Clouds 2700 ft
Dew Point 50 °F
Humidity 69%
Rainfall 0.11 in
Snow Depth Not available.
UV 1.0 out of 12
Pollen Not available.
Air Quality Not available.
Flu Activity Not available.
METAR EKSB 211450Z 30012KT 9999 SCT027 16/11 Q1010

More Conditions Fewer Conditions

Pressure 29.83 in
Visibility 6.2 miles
Clouds Scattered Clouds 2700 ft
Dew Point 50 °F
Humidity 69%
Rainfall 0.11 in
Snow Depth Not available.
UV 1.0 out of 12
Pollen Not available.
Air Quality Not available.
Flu Activity Not available.
METAR EKSB 211450Z 30012KT 9999 SCT027 16/11 Q1010

More Conditions Fewer Conditions

10-Day Weather Forecast

Almanac

Astronomy

Sep. 21, 2014 Rise Set
Actual Time 7:05 AM CEST 7:24 PM CEST
Civil Twilight 6:29 AM CEST 8:00 PM CEST
Nautical Twilight 5:46 AM CEST 8:43 PM CEST
Astronomical Twilight 5:00 AM CEST 9:28 PM CEST
Moon 4:03 AM CEST 6:07 PM CEST
Length of Visible Light 13h 30m
Length of Day
12h 18m
Tomorrow will be 4m 25s shorter.
Waning Crescent, 6% of the Moon is Illuminated
Today
Waning Crescent
Sep 24
New
Oct 1
First Quarter
Oct 8
Full
Oct 15
Last Quarter

Today's Extremes

Country Highs Country Lows

Community

WunderPhotos

Upload Photos

1,755,166 photos uploaded!

Nearby

Snow Depth

Not available.

Earthquake Activity

City Distance Mag. Time & Date
No recent earthquake activity has been reported nearby.
Minimum magnitude displayed is 2.5.

Coastal Water Temperatures

Place Temperature
No Stations Reporting

Nearby Weather Stations